sensor_id;sensor_type;location;lat;lon;timestamp;P1;durP1;ratioP1;P2;durP2;ratioP2
64936;SDS011;51452;47.698;19.050;2024-01-10T00:00:10;29.83;;;8.67;;
64936;SDS011;51452;47.698;19.050;2024-01-10T00:02:36;26.53;;;7.00;;
64936;SDS011;51452;47.698;19.050;2024-01-10T00:05:02;24.77;;;7.70;;
64936;SDS011;51452;47.698;19.050;2024-01-10T00:07:30;12.90;;;4.50;;
64936;SDS011;51452;47.698;19.050;2024-01-10T00:09:55;18.60;;;6.50;;
64936;SDS011;51452;47.698;19.050;2024-01-10T00:12:22;14.13;;;5.00;;
64936;SDS011;51452;47.698;19.050;2024-01-10T00:14:47;12.70;;;4.80;;
64936;SDS011;51452;47.698;19.050;2024-01-10T00:17:13;9.77;;;4.00;;
64936;SDS011;51452;47.698;19.050;2024-01-10T00:19:38;11.93;;;4.13;;
64936;SDS011;51452;47.698;19.050;2024-01-10T00:22:04;13.07;;;4.70;;
64936;SDS011;51452;47.698;19.050;2024-01-10T00:24:29;10.40;;;4.53;;
64936;SDS011;51452;47.698;19.050;2024-01-10T00:26:55;12.70;;;4.30;;
64936;SDS011;51452;47.698;19.050;2024-01-10T00:29:20;12.57;;;4.70;;
64936;SDS011;51452;47.698;19.050;2024-01-10T00:31:45;12.10;;;4.63;;
64936;SDS011;51452;47.698;19.050;2024-01-10T00:34:11;35.57;;;10.13;;
64936;SDS011;51452;47.698;19.050;2024-01-10T00:36:36;26.70;;;8.17;;
64936;SDS011;51452;47.698;19.050;2024-01-10T00:39:02;26.77;;;7.53;;
64936;SDS011;51452;47.698;19.050;2024-01-10T00:41:27;23.93;;;7.27;;
64936;SDS011;51452;47.698;19.050;2024-01-10T00:43:52;24.87;;;8.07;;
64936;SDS011;51452;47.698;19.050;2024-01-10T00:46:18;26.90;;;8.13;;
64936;SDS011;51452;47.698;19.050;2024-01-10T00:48:43;21.10;;;7.03;;
64936;SDS011;51452;47.698;19.050;2024-01-10T00:51:09;15.13;;;5.60;;
64936;SDS011;51452;47.698;19.050;2024-01-10T00:53:35;14.57;;;4.97;;
64936;SDS011;51452;47.698;19.050;2024-01-10T00:56:04;14.23;;;5.30;;
64936;SDS011;51452;47.698;19.050;2024-01-10T00:58:31;12.93;;;5.63;;
64936;SDS011;51452;47.698;19.050;2024-01-10T01:00:56;11.20;;;4.23;;
64936;SDS011;51452;47.698;19.050;2024-01-10T01:03:22;8.23;;;3.07;;
64936;SDS011;51452;47.698;19.050;2024-01-10T01:05:49;6.37;;;2.67;;
64936;SDS011;51452;47.698;19.050;2024-01-10T01:08:15;8.83;;;2.63;;
64936;SDS011;51452;47.698;19.050;2024-01-10T01:10:41;10.33;;;3.87;;
64936;SDS011;51452;47.698;19.050;2024-01-10T01:13:07;14.07;;;4.00;;
64936;SDS011;51452;47.698;19.050;2024-01-10T01:15:34;10.70;;;4.50;;
64936;SDS011;51452;47.698;19.050;2024-01-10T01:18:00;12.10;;;4.40;;
64936;SDS011;51452;47.698;19.050;2024-01-10T01:20:26;6.80;;;2.73;;
64936;SDS011;51452;47.698;19.050;2024-01-10T01:22:52;7.30;;;2.53;;
64936;SDS011;51452;47.698;19.050;2024-01-10T01:25:18;5.13;;;2.63;;
64936;SDS011;51452;47.698;19.050;2024-01-10T01:27:44;6.37;;;2.70;;
64936;SDS011;51452;47.698;19.050;2024-01-10T01:30:09;5.10;;;2.20;;
64936;SDS011;51452;47.698;19.050;2024-01-10T01:32:36;6.57;;;2.60;;
64936;SDS011;51452;47.698;19.050;2024-01-10T01:35:02;6.37;;;2.73;;
64936;SDS011;51452;47.698;19.050;2024-01-10T01:37:29;5.63;;;2.37;;
64936;SDS011;51452;47.698;19.050;2024-01-10T01:39:55;9.70;;;3.60;;
64936;SDS011;51452;47.698;19.050;2024-01-10T01:42:21;15.87;;;5.53;;
64936;SDS011;51452;47.698;19.050;2024-01-10T01:44:47;15.53;;;5.70;;
64936;SDS011;51452;47.698;19.050;2024-01-10T01:47:13;8.17;;;3.43;;
64936;SDS011;51452;47.698;19.050;2024-01-10T01:49:39;7.80;;;2.97;;
64936;SDS011;51452;47.698;19.050;2024-01-10T01:52:12;10.10;;;3.37;;
64936;SDS011;51452;47.698;19.050;2024-01-10T01:54:38;5.10;;;2.13;;
64936;SDS011;51452;47.698;19.050;2024-01-10T01:57:05;5.10;;;2.10;;
64936;SDS011;51452;47.698;19.050;2024-01-10T01:59:30;5.37;;;2.57;;
64936;SDS011;51452;47.698;19.050;2024-01-10T02:01:56;9.60;;;2.40;;
64936;SDS011;51452;47.698;19.050;2024-01-10T02:04:25;11.47;;;3.80;;
64936;SDS011;51452;47.698;19.050;2024-01-10T02:06:52;13.90;;;4.23;;
64936;SDS011;51452;47.698;19.050;2024-01-10T02:09:17;28.23;;;8.37;;
64936;SDS011;51452;47.698;19.050;2024-01-10T02:11:42;32.40;;;9.80;;
64936;SDS011;51452;47.698;19.050;2024-01-10T02:14:08;24.83;;;8.33;;
64936;SDS011;51452;47.698;19.050;2024-01-10T02:16:34;27.00;;;8.10;;
64936;SDS011;51452;47.698;19.050;2024-01-10T02:18:59;26.17;;;8.50;;
64936;SDS011;51452;47.698;19.050;2024-01-10T02:21:26;18.90;;;6.43;;
64936;SDS011;51452;47.698;19.050;2024-01-10T02:23:51;15.73;;;5.27;;
64936;SDS011;51452;47.698;19.050;2024-01-10T02:26:17;17.63;;;4.60;;
64936;SDS011;51452;47.698;19.050;2024-01-10T02:28:43;16.50;;;5.80;;
64936;SDS011;51452;47.698;19.050;2024-01-10T02:31:08;14.60;;;4.67;;
64936;SDS011;51452;47.698;19.050;2024-01-10T02:33:33;14.80;;;4.93;;
64936;SDS011;51452;47.698;19.050;2024-01-10T02:35:59;12.10;;;4.53;;
64936;SDS011;51452;47.698;19.050;2024-01-10T02:38:25;10.13;;;4.17;;
64936;SDS011;51452;47.698;19.050;2024-01-10T02:40:51;8.93;;;3.77;;
64936;SDS011;51452;47.698;19.050;2024-01-10T02:43:17;14.63;;;6.37;;
64936;SDS011;51452;47.698;19.050;2024-01-10T02:45:43;11.63;;;5.27;;
64936;SDS011;51452;47.698;19.050;2024-01-10T02:48:08;11.77;;;4.20;;
64936;SDS011;51452;47.698;19.050;2024-01-10T02:50:33;8.30;;;3.50;;
64936;SDS011;51452;47.698;19.050;2024-01-10T02:52:59;7.77;;;3.27;;
64936;SDS011;51452;47.698;19.050;2024-01-10T02:55:24;7.93;;;3.57;;
64936;SDS011;51452;47.698;19.050;2024-01-10T02:57:49;6.97;;;3.00;;
64936;SDS011;51452;47.698;19.050;2024-01-10T03:00:15;7.37;;;3.13;;
64936;SDS011;51452;47.698;19.050;2024-01-10T03:02:41;17.37;;;4.60;;
64936;SDS011;51452;47.698;19.050;2024-01-10T03:05:06;7.40;;;3.43;;
64936;SDS011;51452;47.698;19.050;2024-01-10T03:07:35;8.90;;;3.63;;
64936;SDS011;51452;47.698;19.050;2024-01-10T03:10:01;6.10;;;2.57;;
64936;SDS011;51452;47.698;19.050;2024-01-10T03:12:26;6.50;;;2.73;;
64936;SDS011;51452;47.698;19.050;2024-01-10T03:14:52;12.10;;;3.23;;
64936;SDS011;51452;47.698;19.050;2024-01-10T03:17:20;8.17;;;3.00;;
64936;SDS011;51452;47.698;19.050;2024-01-10T03:19:52;4.78;;;2.33;;
64936;SDS011;51452;47.698;19.050;2024-01-10T03:22:18;3.57;;;1.97;;
64936;SDS011;51452;47.698;19.050;2024-01-10T03:24:43;4.13;;;1.93;;
64936;SDS011;51452;47.698;19.050;2024-01-10T03:27:08;3.83;;;2.07;;
64936;SDS011;51452;47.698;19.050;2024-01-10T03:29:33;3.10;;;1.73;;
64936;SDS011;51452;47.698;19.050;2024-01-10T03:32:00;3.10;;;1.70;;
64936;SDS011;51452;47.698;19.050;2024-01-10T03:34:26;6.40;;;2.87;;
64936;SDS011;51452;47.698;19.050;2024-01-10T03:36:52;10.73;;;3.60;;
64936;SDS011;51452;47.698;19.050;2024-01-10T03:39:17;7.73;;;3.47;;
64936;SDS011;51452;47.698;19.050;2024-01-10T03:41:42;7.33;;;3.23;;
64936;SDS011;51452;47.698;19.050;2024-01-10T03:44:08;9.43;;;4.27;;
64936;SDS011;51452;47.698;19.050;2024-01-10T03:46:33;11.87;;;4.63;;
64936;SDS011;51452;47.698;19.050;2024-01-10T03:48:59;12.93;;;4.33;;
64936;SDS011;51452;47.698;19.050;2024-01-10T03:51:24;11.37;;;4.00;;
64936;SDS011;51452;47.698;19.050;2024-01-10T03:53:49;6.23;;;2.67;;
64936;SDS011;51452;47.698;19.050;2024-01-10T03:56:16;5.47;;;2.30;;
64936;SDS011;51452;47.698;19.050;2024-01-10T03:58:41;3.77;;;1.83;;
64936;SDS011;51452;47.698;19.050;2024-01-10T04:01:07;4.00;;;2.00;;
64936;SDS011;51452;47.698;19.050;2024-01-10T04:03:33;4.27;;;2.23;;
64936;SDS011;51452;47.698;19.050;2024-01-10T04:05:59;5.50;;;1.83;;
64936;SDS011;51452;47.698;19.050;2024-01-10T04:08:25;6.57;;;2.50;;
64936;SDS011;51452;47.698;19.050;2024-01-10T04:10:50;3.30;;;2.07;;
64936;SDS011;51452;47.698;19.050;2024-01-10T04:13:16;4.63;;;2.10;;
64936;SDS011;51452;47.698;19.050;2024-01-10T04:15:41;4.03;;;1.90;;
64936;SDS011;51452;47.698;19.050;2024-01-10T04:18:08;7.43;;;2.20;;
64936;SDS011;51452;47.698;19.050;2024-01-10T04:20:33;5.93;;;2.33;;
64936;SDS011;51452;47.698;19.050;2024-01-10T04:22:59;3.47;;;1.97;;
64936;SDS011;51452;47.698;19.050;2024-01-10T04:25:24;3.37;;;1.90;;
64936;SDS011;51452;47.698;19.050;2024-01-10T04:27:49;3.33;;;1.67;;
64936;SDS011;51452;47.698;19.050;2024-01-10T04:30:15;4.17;;;1.90;;
64936;SDS011;51452;47.698;19.050;2024-01-10T04:32:42;3.63;;;1.80;;
64936;SDS011;51452;47.698;19.050;2024-01-10T04:35:10;3.80;;;1.90;;
64936;SDS011;51452;47.698;19.050;2024-01-10T04:37:39;4.53;;;2.00;;
64936;SDS011;51452;47.698;19.050;2024-01-10T04:40:04;5.43;;;2.00;;
64936;SDS011;51452;47.698;19.050;2024-01-10T04:42:30;4.87;;;1.93;;
64936;SDS011;51452;47.698;19.050;2024-01-10T04:44:56;3.60;;;1.80;;
64936;SDS011;51452;47.698;19.050;2024-01-10T04:47:21;4.23;;;2.07;;
64936;SDS011;51452;47.698;19.050;2024-01-10T04:49:46;5.33;;;2.00;;
64936;SDS011;51452;47.698;19.050;2024-01-10T04:52:12;4.27;;;2.20;;
64936;SDS011;51452;47.698;19.050;2024-01-10T04:54:38;4.73;;;2.10;;
64936;SDS011;51452;47.698;19.050;2024-01-10T04:57:04;5.20;;;2.10;;
64936;SDS011;51452;47.698;19.050;2024-01-10T04:59:29;4.53;;;2.23;;
64936;SDS011;51452;47.698;19.050;2024-01-10T05:01:54;6.13;;;2.10;;
64936;SDS011;51452;47.698;19.050;2024-01-10T05:04:20;4.63;;;2.23;;
64936;SDS011;51452;47.698;19.050;2024-01-10T05:06:45;6.30;;;2.30;;
64936;SDS011;51452;47.698;19.050;2024-01-10T05:09:11;4.93;;;2.30;;
64936;SDS011;51452;47.698;19.050;2024-01-10T05:11:37;6.80;;;1.93;;
64936;SDS011;51452;47.698;19.050;2024-01-10T05:14:03;6.40;;;2.37;;
64936;SDS011;51452;47.698;19.050;2024-01-10T05:16:29;6.33;;;2.47;;
64936;SDS011;51452;47.698;19.050;2024-01-10T05:18:54;4.70;;;2.20;;
64936;SDS011;51452;47.698;19.050;2024-01-10T05:21:20;3.87;;;2.00;;
64936;SDS011;51452;47.698;19.050;2024-01-10T05:23:46;5.80;;;2.10;;
64936;SDS011;51452;47.698;19.050;2024-01-10T05:26:11;6.63;;;2.53;;
64936;SDS011;51452;47.698;19.050;2024-01-10T05:28:36;5.33;;;2.23;;
64936;SDS011;51452;47.698;19.050;2024-01-10T05:31:02;5.60;;;2.47;;
64936;SDS011;51452;47.698;19.050;2024-01-10T05:33:28;6.20;;;2.60;;
64936;SDS011;51452;47.698;19.050;2024-01-10T05:35:53;7.60;;;2.17;;
64936;SDS011;51452;47.698;19.050;2024-01-10T05:38:18;5.80;;;2.03;;
64936;SDS011;51452;47.698;19.050;2024-01-10T05:40:44;4.23;;;2.03;;
64936;SDS011;51452;47.698;19.050;2024-01-10T05:43:09;4.90;;;1.90;;
64936;SDS011;51452;47.698;19.050;2024-01-10T05:45:38;5.57;;;2.00;;
64936;SDS011;51452;47.698;19.050;2024-01-10T05:48:03;4.43;;;1.80;;
64936;SDS011;51452;47.698;19.050;2024-01-10T05:50:38;5.20;;;2.30;;
64936;SDS011;51452;47.698;19.050;2024-01-10T05:53:05;5.47;;;2.80;;
64936;SDS011;51452;47.698;19.050;2024-01-10T05:55:30;6.30;;;2.63;;
64936;SDS011;51452;47.698;19.050;2024-01-10T05:57:55;8.33;;;2.03;;
64936;SDS011;51452;47.698;19.050;2024-01-10T06:00:21;10.87;;;2.30;;
64936;SDS011;51452;47.698;19.050;2024-01-10T06:02:46;7.97;;;2.20;;
64936;SDS011;51452;47.698;19.050;2024-01-10T06:05:12;8.03;;;2.63;;
64936;SDS011;51452;47.698;19.050;2024-01-10T06:07:38;5.13;;;2.00;;
64936;SDS011;51452;47.698;19.050;2024-01-10T06:10:04;6.43;;;2.40;;
64936;SDS011;51452;47.698;19.050;2024-01-10T06:12:30;8.53;;;2.40;;
64936;SDS011;51452;47.698;19.050;2024-01-10T06:14:56;4.80;;;2.37;;
64936;SDS011;51452;47.698;19.050;2024-01-10T06:17:22;5.33;;;1.90;;
64936;SDS011;51452;47.698;19.050;2024-01-10T06:19:48;6.43;;;2.37;;
64936;SDS011;51452;47.698;19.050;2024-01-10T06:22:14;5.73;;;2.20;;
64936;SDS011;51452;47.698;19.050;2024-01-10T06:24:39;14.43;;;2.57;;
64936;SDS011;51452;47.698;19.050;2024-01-10T06:27:06;9.47;;;2.30;;
64936;SDS011;51452;47.698;19.050;2024-01-10T06:29:31;6.27;;;2.93;;
64936;SDS011;51452;47.698;19.050;2024-01-10T06:31:57;4.23;;;2.30;;
64936;SDS011;51452;47.698;19.050;2024-01-10T06:34:23;11.30;;;2.80;;
64936;SDS011;51452;47.698;19.050;2024-01-10T06:36:49;10.23;;;2.90;;
64936;SDS011;51452;47.698;19.050;2024-01-10T06:39:14;6.33;;;2.47;;
64936;SDS011;51452;47.698;19.050;2024-01-10T06:41:41;9.43;;;2.83;;
64936;SDS011;51452;47.698;19.050;2024-01-10T06:44:07;9.20;;;3.10;;
64936;SDS011;51452;47.698;19.050;2024-01-10T06:46:33;6.63;;;2.47;;
64936;SDS011;51452;47.698;19.050;2024-01-10T06:48:58;4.33;;;1.90;;
64936;SDS011;51452;47.698;19.050;2024-01-10T06:51:24;5.80;;;2.20;;
64936;SDS011;51452;47.698;19.050;2024-01-10T06:53:50;7.77;;;2.20;;
64936;SDS011;51452;47.698;19.050;2024-01-10T06:56:15;4.57;;;2.23;;
64936;SDS011;51452;47.698;19.050;2024-01-10T06:58:40;8.80;;;2.10;;
64936;SDS011;51452;47.698;19.050;2024-01-10T07:01:15;4.23;;;2.23;;
64936;SDS011;51452;47.698;19.050;2024-01-10T07:03:40;6.35;;;2.70;;
64936;SDS011;51452;47.698;19.050;2024-01-10T07:06:06;6.77;;;2.47;;
64936;SDS011;51452;47.698;19.050;2024-01-10T07:08:31;4.20;;;2.20;;
64936;SDS011;51452;47.698;19.050;2024-01-10T07:10:56;11.70;;;2.37;;
64936;SDS011;51452;47.698;19.050;2024-01-10T07:13:22;3.63;;;2.03;;
64936;SDS011;51452;47.698;19.050;2024-01-10T07:15:48;8.70;;;2.47;;
64936;SDS011;51452;47.698;19.050;2024-01-10T07:18:15;5.17;;;2.20;;
64936;SDS011;51452;47.698;19.050;2024-01-10T07:20:41;18.53;;;2.73;;
64936;SDS011;51452;47.698;19.050;2024-01-10T07:23:08;4.63;;;2.20;;
64936;SDS011;51452;47.698;19.050;2024-01-10T07:25:33;4.50;;;1.87;;
64936;SDS011;51452;47.698;19.050;2024-01-10T07:27:59;5.10;;;2.03;;
64936;SDS011;51452;47.698;19.050;2024-01-10T07:30:24;4.30;;;2.10;;
64936;SDS011;51452;47.698;19.050;2024-01-10T07:32:50;7.30;;;2.67;;
64936;SDS011;51452;47.698;19.050;2024-01-10T07:35:15;6.23;;;3.00;;
64936;SDS011;51452;47.698;19.050;2024-01-10T07:37:41;6.33;;;3.13;;
64936;SDS011;51452;47.698;19.050;2024-01-10T07:40:07;7.77;;;3.87;;
64936;SDS011;51452;47.698;19.050;2024-01-10T07:42:35;12.20;;;4.40;;
64936;SDS011;51452;47.698;19.050;2024-01-10T07:45:01;8.47;;;3.93;;
64936;SDS011;51452;47.698;19.050;2024-01-10T07:47:30;8.93;;;4.33;;
64936;SDS011;51452;47.698;19.050;2024-01-10T07:49:59;10.60;;;5.33;;
64936;SDS011;51452;47.698;19.050;2024-01-10T07:52:24;10.70;;;5.40;;
64936;SDS011;51452;47.698;19.050;2024-01-10T07:54:50;12.53;;;4.50;;
64936;SDS011;51452;47.698;19.050;2024-01-10T07:57:15;8.50;;;4.20;;
64936;SDS011;51452;47.698;19.050;2024-01-10T07:59:43;16.60;;;4.80;;
64936;SDS011;51452;47.698;19.050;2024-01-10T08:02:09;7.73;;;3.47;;
64936;SDS011;51452;47.698;19.050;2024-01-10T08:04:35;10.83;;;4.27;;
64936;SDS011;51452;47.698;19.050;2024-01-10T08:07:00;8.37;;;3.90;;
64936;SDS011;51452;47.698;19.050;2024-01-10T08:09:26;13.43;;;4.13;;
64936;SDS011;51452;47.698;19.050;2024-01-10T08:11:51;7.73;;;3.70;;
64936;SDS011;51452;47.698;19.050;2024-01-10T08:14:17;7.93;;;3.40;;
64936;SDS011;51452;47.698;19.050;2024-01-10T08:16:42;4.80;;;2.63;;
64936;SDS011;51452;47.698;19.050;2024-01-10T08:19:08;4.77;;;2.70;;
64936;SDS011;51452;47.698;19.050;2024-01-10T08:21:33;7.37;;;2.80;;
64936;SDS011;51452;47.698;19.050;2024-01-10T08:24:01;7.50;;;3.77;;
64936;SDS011;51452;47.698;19.050;2024-01-10T08:26:27;9.03;;;4.27;;
64936;SDS011;51452;47.698;19.050;2024-01-10T08:28:53;12.63;;;5.10;;
64936;SDS011;51452;47.698;19.050;2024-01-10T08:31:18;13.90;;;6.27;;
64936;SDS011;51452;47.698;19.050;2024-01-10T08:33:44;12.83;;;6.10;;
64936;SDS011;51452;47.698;19.050;2024-01-10T08:36:10;19.90;;;8.43;;
64936;SDS011;51452;47.698;19.050;2024-01-10T08:38:36;23.00;;;9.73;;
64936;SDS011;51452;47.698;19.050;2024-01-10T08:41:02;24.47;;;9.53;;
64936;SDS011;51452;47.698;19.050;2024-01-10T08:43:28;31.60;;;10.73;;
64936;SDS011;51452;47.698;19.050;2024-01-10T08:45:54;34.60;;;12.03;;
64936;SDS011;51452;47.698;19.050;2024-01-10T08:48:20;28.00;;;12.53;;
64936;SDS011;51452;47.698;19.050;2024-01-10T08:50:45;30.50;;;13.17;;
64936;SDS011;51452;47.698;19.050;2024-01-10T08:53:11;28.13;;;13.63;;
64936;SDS011;51452;47.698;19.050;2024-01-10T08:55:36;32.47;;;13.50;;
64936;SDS011;51452;47.698;19.050;2024-01-10T08:58:04;28.67;;;13.17;;
64936;SDS011;51452;47.698;19.050;2024-01-10T09:00:30;31.93;;;12.80;;
64936;SDS011;51452;47.698;19.050;2024-01-10T09:03:00;25.57;;;11.80;;
64936;SDS011;51452;47.698;19.050;2024-01-10T09:05:26;29.17;;;12.17;;
64936;SDS011;51452;47.698;19.050;2024-01-10T09:07:51;23.83;;;11.70;;
64936;SDS011;51452;47.698;19.050;2024-01-10T09:10:18;23.50;;;11.07;;
64936;SDS011;51452;47.698;19.050;2024-01-10T09:12:44;23.40;;;11.17;;
64936;SDS011;51452;47.698;19.050;2024-01-10T09:15:11;21.97;;;10.50;;
64936;SDS011;51452;47.698;19.050;2024-01-10T09:17:39;23.53;;;11.13;;
64936;SDS011;51452;47.698;19.050;2024-01-10T09:20:05;27.77;;;11.47;;
64936;SDS011;51452;47.698;19.050;2024-01-10T09:22:31;27.07;;;10.97;;
64936;SDS011;51452;47.698;19.050;2024-01-10T09:24:56;19.83;;;9.40;;
64936;SDS011;51452;47.698;19.050;2024-01-10T09:27:27;19.87;;;8.67;;
64936;SDS011;51452;47.698;19.050;2024-01-10T09:29:53;17.13;;;6.93;;
64936;SDS011;51452;47.698;19.050;2024-01-10T09:32:19;18.03;;;8.30;;
64936;SDS011;51452;47.698;19.050;2024-01-10T09:34:44;17.87;;;7.67;;
64936;SDS011;51452;47.698;19.050;2024-01-10T09:37:10;16.57;;;6.73;;
64936;SDS011;51452;47.698;19.050;2024-01-10T09:39:36;16.87;;;6.83;;
64936;SDS011;51452;47.698;19.050;2024-01-10T09:42:01;12.50;;;6.10;;
64936;SDS011;51452;47.698;19.050;2024-01-10T09:44:26;14.20;;;5.77;;
64936;SDS011;51452;47.698;19.050;2024-01-10T09:46:53;10.73;;;4.53;;
64936;SDS011;51452;47.698;19.050;2024-01-10T09:49:20;12.17;;;5.40;;
64936;SDS011;51452;47.698;19.050;2024-01-10T09:51:50;10.03;;;5.17;;
64936;SDS011;51452;47.698;19.050;2024-01-10T09:54:18;10.37;;;4.70;;
64936;SDS011;51452;47.698;19.050;2024-01-10T09:56:45;9.57;;;4.83;;
64936;SDS011;51452;47.698;19.050;2024-01-10T09:59:12;9.60;;;4.20;;
64936;SDS011;51452;47.698;19.050;2024-01-10T10:01:38;10.57;;;5.00;;
64936;SDS011;51452;47.698;19.050;2024-01-10T10:04:07;9.30;;;4.50;;
64936;SDS011;51452;47.698;19.050;2024-01-10T10:06:36;11.07;;;5.77;;
64936;SDS011;51452;47.698;19.050;2024-01-10T10:09:01;13.53;;;4.77;;
64936;SDS011;51452;47.698;19.050;2024-01-10T10:11:27;11.93;;;5.23;;
64936;SDS011;51452;47.698;19.050;2024-01-10T10:13:52;11.63;;;5.10;;
64936;SDS011;51452;47.698;19.050;2024-01-10T10:16:25;10.07;;;5.07;;
64936;SDS011;51452;47.698;19.050;2024-01-10T10:18:53;12.93;;;5.57;;
64936;SDS011;51452;47.698;19.050;2024-01-10T10:21:24;16.63;;;6.77;;
64936;SDS011;51452;47.698;19.050;2024-01-10T10:24:00;13.70;;;5.87;;
64936;SDS011;51452;47.698;19.050;2024-01-10T10:26:26;16.70;;;6.77;;
64936;SDS011;51452;47.698;19.050;2024-01-10T10:28:54;17.13;;;7.57;;
64936;SDS011;51452;47.698;19.050;2024-01-10T10:31:21;19.33;;;7.53;;
64936;SDS011;51452;47.698;19.050;2024-01-10T10:33:49;18.80;;;8.13;;
64936;SDS011;51452;47.698;19.050;2024-01-10T10:36:16;21.57;;;8.67;;
64936;SDS011;51452;47.698;19.050;2024-01-10T10:38:41;18.23;;;7.73;;
64936;SDS011;51452;47.698;19.050;2024-01-10T10:41:07;16.57;;;7.80;;
64936;SDS011;51452;47.698;19.050;2024-01-10T10:43:35;24.50;;;8.57;;
64936;SDS011;51452;47.698;19.050;2024-01-10T10:46:07;17.90;;;7.90;;
64936;SDS011;51452;47.698;19.050;2024-01-10T10:48:41;14.40;;;7.43;;
64936;SDS011;51452;47.698;19.050;2024-01-10T10:51:11;17.33;;;7.93;;
64936;SDS011;51452;47.698;19.050;2024-01-10T10:53:42;16.93;;;8.23;;
64936;SDS011;51452;47.698;19.050;2024-01-10T10:56:11;18.30;;;7.70;;
64936;SDS011;51452;47.698;19.050;2024-01-10T10:58:41;22.53;;;7.97;;
64936;SDS011;51452;47.698;19.050;2024-01-10T11:01:09;18.87;;;7.60;;
64936;SDS011;51452;47.698;19.050;2024-01-10T11:03:37;14.73;;;6.80;;
64936;SDS011;51452;47.698;19.050;2024-01-10T11:06:12;15.90;;;7.00;;
64936;SDS011;51452;47.698;19.050;2024-01-10T11:08:59;15.77;;;6.90;;
64936;SDS011;51452;47.698;19.050;2024-01-10T11:11:38;14.67;;;6.67;;
64936;SDS011;51452;47.698;19.050;2024-01-10T11:21:03;14.83;;;7.07;;
64936;SDS011;51452;47.698;19.050;2024-01-10T11:23:49;15.53;;;6.53;;
64936;SDS011;51452;47.698;19.050;2024-01-10T11:26:18;14.33;;;7.50;;
64936;SDS011;51452;47.698;19.050;2024-01-10T11:28:44;15.57;;;6.80;;
64936;SDS011;51452;47.698;19.050;2024-01-10T11:31:10;16.47;;;6.87;;
64936;SDS011;51452;47.698;19.050;2024-01-10T11:33:44;14.67;;;7.23;;
64936;SDS011;51452;47.698;19.050;2024-01-10T11:41:19;22.13;;;8.07;;
64936;SDS011;51452;47.698;19.050;2024-01-10T11:46:57;18.07;;;8.17;;
64936;SDS011;51452;47.698;19.050;2024-01-10T11:49:23;19.20;;;8.00;;
64936;SDS011;51452;47.698;19.050;2024-01-10T11:51:58;18.27;;;7.70;;
64936;SDS011;51452;47.698;19.050;2024-01-10T11:54:46;19.67;;;8.17;;
64936;SDS011;51452;47.698;19.050;2024-01-10T11:57:12;15.43;;;8.00;;
64936;SDS011;51452;47.698;19.050;2024-01-10T11:59:45;20.90;;;7.07;;
64936;SDS011;51452;47.698;19.050;2024-01-10T12:02:11;16.43;;;7.03;;
64936;SDS011;51452;47.698;19.050;2024-01-10T12:04:37;18.80;;;7.00;;
64936;SDS011;51452;47.698;19.050;2024-01-10T12:07:03;15.03;;;7.33;;
64936;SDS011;51452;47.698;19.050;2024-01-10T12:09:30;18.73;;;7.80;;
64936;SDS011;51452;47.698;19.050;2024-01-10T12:11:56;19.67;;;8.20;;
64936;SDS011;51452;47.698;19.050;2024-01-10T12:14:21;18.80;;;8.03;;
64936;SDS011;51452;47.698;19.050;2024-01-10T12:16:47;16.40;;;8.10;;
64936;SDS011;51452;47.698;19.050;2024-01-10T12:19:12;12.03;;;7.07;;
64936;SDS011;51452;47.698;19.050;2024-01-10T12:21:38;14.70;;;7.00;;
64936;SDS011;51452;47.698;19.050;2024-01-10T12:24:05;17.07;;;8.20;;
64936;SDS011;51452;47.698;19.050;2024-01-10T12:26:30;16.20;;;7.60;;
64936;SDS011;51452;47.698;19.050;2024-01-10T12:28:57;14.53;;;6.27;;
64936;SDS011;51452;47.698;19.050;2024-01-10T12:31:23;13.27;;;6.50;;
64936;SDS011;51452;47.698;19.050;2024-01-10T12:33:51;9.77;;;5.80;;
64936;SDS011;51452;47.698;19.050;2024-01-10T12:36:17;15.23;;;6.03;;
64936;SDS011;51452;47.698;19.050;2024-01-10T12:38:43;13.67;;;6.00;;
64936;SDS011;51452;47.698;19.050;2024-01-10T12:41:12;10.13;;;5.13;;
64936;SDS011;51452;47.698;19.050;2024-01-10T12:43:40;12.43;;;5.50;;
64936;SDS011;51452;47.698;19.050;2024-01-10T12:46:09;9.10;;;5.20;;
64936;SDS011;51452;47.698;19.050;2024-01-10T12:48:39;10.63;;;5.33;;
64936;SDS011;51452;47.698;19.050;2024-01-10T12:51:09;9.33;;;4.83;;
64936;SDS011;51452;47.698;19.050;2024-01-10T12:53:36;11.30;;;5.23;;
64936;SDS011;51452;47.698;19.050;2024-01-10T12:56:09;9.63;;;5.10;;
64936;SDS011;51452;47.698;19.050;2024-01-10T12:58:39;10.70;;;5.63;;
64936;SDS011;51452;47.698;19.050;2024-01-10T13:01:08;12.40;;;5.00;;
64936;SDS011;51452;47.698;19.050;2024-01-10T13:03:33;11.03;;;5.70;;
64936;SDS011;51452;47.698;19.050;2024-01-10T13:06:02;11.57;;;5.60;;
64936;SDS011;51452;47.698;19.050;2024-01-10T13:08:28;11.70;;;6.33;;
64936;SDS011;51452;47.698;19.050;2024-01-10T13:10:56;11.33;;;6.40;;
64936;SDS011;51452;47.698;19.050;2024-01-10T13:13:22;10.53;;;6.00;;
64936;SDS011;51452;47.698;19.050;2024-01-10T13:15:48;14.00;;;6.43;;
64936;SDS011;51452;47.698;19.050;2024-01-10T13:18:14;11.97;;;6.20;;
64936;SDS011;51452;47.698;19.050;2024-01-10T13:20:42;13.80;;;6.50;;
64936;SDS011;51452;47.698;19.050;2024-01-10T13:23:08;12.23;;;6.23;;
64936;SDS011;51452;47.698;19.050;2024-01-10T13:25:34;16.07;;;7.03;;
64936;SDS011;51452;47.698;19.050;2024-01-10T13:28:00;14.83;;;6.10;;
64936;SDS011;51452;47.698;19.050;2024-01-10T13:30:26;12.33;;;6.67;;
64936;SDS011;51452;47.698;19.050;2024-01-10T13:32:52;12.33;;;5.77;;
64936;SDS011;51452;47.698;19.050;2024-01-10T13:35:18;11.03;;;5.67;;
64936;SDS011;51452;47.698;19.050;2024-01-10T13:37:44;13.13;;;6.40;;
64936;SDS011;51452;47.698;19.050;2024-01-10T13:40:10;14.13;;;6.03;;
64936;SDS011;51452;47.698;19.050;2024-01-10T13:42:40;16.87;;;6.87;;
64936;SDS011;51452;47.698;19.050;2024-01-10T13:45:06;13.17;;;6.40;;
64936;SDS011;51452;47.698;19.050;2024-01-10T13:47:41;13.00;;;6.07;;
64936;SDS011;51452;47.698;19.050;2024-01-10T13:50:06;14.30;;;6.57;;
64936;SDS011;51452;47.698;19.050;2024-01-10T13:52:33;13.17;;;5.80;;
64936;SDS011;51452;47.698;19.050;2024-01-10T13:54:59;11.27;;;5.90;;
64936;SDS011;51452;47.698;19.050;2024-01-10T13:57:25;11.97;;;6.37;;
64936;SDS011;51452;47.698;19.050;2024-01-10T13:59:51;11.43;;;5.70;;
64936;SDS011;51452;47.698;19.050;2024-01-10T14:02:16;12.70;;;5.80;;
64936;SDS011;51452;47.698;19.050;2024-01-10T14:04:44;10.20;;;5.03;;
64936;SDS011;51452;47.698;19.050;2024-01-10T14:07:10;9.23;;;5.33;;
64936;SDS011;51452;47.698;19.050;2024-01-10T14:09:35;15.80;;;6.03;;
64936;SDS011;51452;47.698;19.050;2024-01-10T14:12:01;12.77;;;5.57;;
64936;SDS011;51452;47.698;19.050;2024-01-10T14:14:26;11.10;;;5.27;;
64936;SDS011;51452;47.698;19.050;2024-01-10T14:16:52;12.20;;;6.40;;
64936;SDS011;51452;47.698;19.050;2024-01-10T14:19:17;12.53;;;5.60;;
64936;SDS011;51452;47.698;19.050;2024-01-10T14:21:43;16.90;;;6.43;;
64936;SDS011;51452;47.698;19.050;2024-01-10T14:24:09;15.13;;;6.10;;
64936;SDS011;51452;47.698;19.050;2024-01-10T14:26:34;14.43;;;5.97;;
64936;SDS011;51452;47.698;19.050;2024-01-10T14:29:00;16.73;;;6.43;;
64936;SDS011;51452;47.698;19.050;2024-01-10T14:31:25;14.77;;;6.03;;
64936;SDS011;51452;47.698;19.050;2024-01-10T14:33:51;14.60;;;6.50;;
64936;SDS011;51452;47.698;19.050;2024-01-10T14:36:16;14.33;;;6.63;;